createdAt,value
2022-12-16T00:02:01.508Z,98507.80
2022-12-16T00:04:28.180Z,98509.52
2022-12-16T00:06:54.861Z,98522.02
2022-12-16T00:09:21.524Z,98519.83
2022-12-16T00:11:48.125Z,98517.98
2022-12-16T00:14:14.783Z,98513.80
2022-12-16T00:16:41.396Z,98507.98
2022-12-16T00:19:07.975Z,98507.42
2022-12-16T00:21:35.922Z,98509.48
2022-12-16T00:24:02.601Z,98512.61
2022-12-16T00:26:30.554Z,98514.38
2022-12-16T00:28:57.702Z,98510.62
2022-12-16T00:31:24.299Z,98509.45
2022-12-16T00:33:52.277Z,98500.48
2022-12-16T00:36:18.833Z,98497.75
2022-12-16T00:38:45.373Z,98496.05
2022-12-16T00:41:12.004Z,98497.08
2022-12-16T00:43:39.445Z,98494.98
2022-12-16T00:46:06.022Z,98484.96
2022-12-16T00:48:32.790Z,98482.48
2022-12-16T00:50:59.699Z,98474.83
2022-12-16T00:53:26.302Z,98474.58
2022-12-16T00:56:02.029Z,98476.48
2022-12-16T00:58:28.584Z,98473.37
2022-12-16T01:00:55.246Z,98472.39
2022-12-16T01:03:22.375Z,98474.66
2022-12-16T01:05:49.560Z,98479.21
2022-12-16T01:08:16.299Z,98482.70
2022-12-16T01:10:48.940Z,98484.63
2022-12-16T01:13:15.730Z,98487.23
2022-12-16T01:15:42.374Z,98491.05
2022-12-16T01:18:08.938Z,98489.33
2022-12-16T01:20:35.440Z,98476.21
2022-12-16T01:23:02.019Z,98467.57
2022-12-16T01:25:28.612Z,98470.33
2022-12-16T01:27:55.313Z,98477.20
2022-12-16T01:30:22.017Z,98479.42
2022-12-16T01:32:49.011Z,98474.70
2022-12-16T01:35:50.914Z,98466.27
2022-12-16T01:38:03.253Z,98467.11
2022-12-16T01:40:30.047Z,98466.92
2022-12-16T01:42:56.624Z,98468.27
2022-12-16T01:45:29.319Z,98473.70
2022-12-16T01:48:00.730Z,98481.12
2022-12-16T01:50:29.419Z,98481.98
2022-12-16T01:52:59.326Z,98477.16
2022-12-16T01:55:38.070Z,98473.86
2022-12-16T01:58:20.858Z,98467.27
2022-12-16T02:00:48.159Z,98463.42
2022-12-16T02:03:15.612Z,98464.73
2022-12-16T02:05:44.079Z,98464.79
2022-12-16T02:08:18.711Z,98464.63
2022-12-16T02:11:27.115Z,98457.20
2022-12-16T02:14:18.317Z,98452.13
2022-12-16T02:17:17.223Z,98452.33
2022-12-16T02:19:56.607Z,98449.24
2022-12-16T02:23:00.805Z,98443.92
2022-12-16T02:26:04.797Z,98442.02
2022-12-16T02:28:49.526Z,98442.36
2022-12-16T02:31:27.117Z,98440.46
2022-12-16T02:34:07.546Z,98442.27
2022-12-16T02:36:53.132Z,98440.32
2022-12-16T02:39:24.874Z,98443.70
2022-12-16T02:42:09.122Z,98444.73
2022-12-16T02:44:57.656Z,98440.21
2022-12-16T02:47:24.511Z,98438.81
2022-12-16T02:49:53.591Z,98440.21
2022-12-16T02:52:38.441Z,98438.68
2022-12-16T02:55:08.422Z,98433.97
2022-12-16T02:57:48.957Z,98427.08
2022-12-16T03:00:21.260Z,98423.46
2022-12-16T03:03:01.362Z,98425.01
2022-12-16T03:05:35.713Z,98419.45
2022-12-16T03:08:07.101Z,98414.93
2022-12-16T03:10:44.720Z,98417.14
2022-12-16T03:13:13.654Z,98416.98
2022-12-16T03:15:42.655Z,98411.94
2022-12-16T03:18:13.179Z,98411.63
2022-12-16T03:20:56.570Z,98417.44
2022-12-16T03:23:40.339Z,98415.56
2022-12-16T03:26:09.767Z,98413.89
2022-12-16T03:29:02.274Z,98409.80
2022-12-16T03:31:50.763Z,98404.92
2022-12-16T03:34:38.559Z,98402.43
2022-12-16T03:37:08.837Z,98400.30
2022-12-16T03:39:41.768Z,98404.03
2022-12-16T03:42:09.667Z,98410.16
2022-12-16T03:44:36.598Z,98411.98
2022-12-16T03:47:03.258Z,98415.23
2022-12-16T03:49:29.789Z,98413.71
2022-12-16T03:51:56.350Z,98410.95
2022-12-16T03:54:23.756Z,98410.26
2022-12-16T03:56:50.715Z,98411.27
2022-12-16T03:59:17.528Z,98409.79
2022-12-16T04:01:44.345Z,98409.26
2022-12-16T04:04:11.457Z,98410.64
2022-12-16T04:06:38.164Z,98413.52
2022-12-16T04:09:04.865Z,98414.39
2022-12-16T04:11:50.007Z,98415.21
2022-12-16T04:14:35.434Z,98421.23
2022-12-16T04:17:20.848Z,98426.88
2022-12-16T04:20:06.402Z,98423.08
2022-12-16T04:22:55.337Z,98426.52
2022-12-16T04:25:29.335Z,98432.70
2022-12-16T04:27:57.942Z,98434.27
2022-12-16T04:30:27.022Z,98435.94
2022-12-16T04:33:17.157Z,98437.38
2022-12-16T04:36:02.653Z,98432.48
2022-12-16T04:38:48.064Z,98433.91
2022-12-16T04:41:33.670Z,98435.55
2022-12-16T04:44:19.133Z,98438.94
2022-12-16T04:47:04.663Z,98439.91
2022-12-16T04:49:50.332Z,98437.29
2022-12-16T04:52:36.761Z,98437.64
2022-12-16T04:55:23.178Z,98441.35
2022-12-16T04:58:13.374Z,98446.45
2022-12-16T05:00:59.252Z,98445.27
2022-12-16T05:03:45.291Z,98445.52
2022-12-16T05:06:31.445Z,98441.96
2022-12-16T05:09:16.898Z,98445.66
2022-12-16T05:12:02.813Z,98451.81
2022-12-16T05:14:48.230Z,98450.61
2022-12-16T05:17:34.187Z,98453.81
2022-12-16T05:20:19.675Z,98446.84
2022-12-16T05:23:05.097Z,98442.22
2022-12-16T05:25:50.352Z,98432.57
2022-12-16T05:28:36.991Z,98422.33
2022-12-16T05:31:22.413Z,98423.89
2022-12-16T05:34:08.005Z,98418.25
2022-12-16T05:36:53.475Z,98410.41
2022-12-16T05:39:38.495Z,98403.76
2022-12-16T05:42:24.068Z,98405.06
2022-12-16T05:45:09.166Z,98408.39
2022-12-16T05:47:54.868Z,98413.85
2022-12-16T05:50:39.777Z,98412.54
2022-12-16T05:53:27.853Z,98414.83
2022-12-16T05:56:13.435Z,98416.53
2022-12-16T05:58:58.306Z,98416.65
2022-12-16T06:01:43.512Z,98420.80
2022-12-16T06:04:28.704Z,98426.28
2022-12-16T06:07:13.694Z,98429.09
2022-12-16T06:09:58.796Z,98424.63
2022-12-16T06:12:43.778Z,98427.02
2022-12-16T06:15:29.084Z,98425.70
2022-12-16T06:18:14.053Z,98430.28
2022-12-16T06:20:59.559Z,98429.86
2022-12-16T06:23:44.383Z,98430.20
2022-12-16T06:26:29.972Z,98430.52
2022-12-16T06:29:15.582Z,98432.52
2022-12-16T06:32:00.628Z,98435.95
2022-12-16T06:34:45.723Z,98439.77
2022-12-16T06:37:30.713Z,98433.23
2022-12-16T06:40:15.844Z,98440.47
2022-12-16T06:43:00.885Z,98441.58
2022-12-16T06:45:46.588Z,98440.42
2022-12-16T06:48:32.261Z,98434.23
2022-12-16T06:51:17.296Z,98434.18
2022-12-16T06:54:02.432Z,98435.34
2022-12-16T06:56:47.433Z,98430.94
2022-12-16T06:59:32.522Z,98422.77
2022-12-16T07:02:17.368Z,98428.81
2022-12-16T07:05:02.692Z,98433.00
2022-12-16T07:07:47.783Z,98435.13
2022-12-16T07:10:33.091Z,98438.63
2022-12-16T07:13:18.651Z,98433.99
2022-12-16T07:16:04.684Z,98435.36
2022-12-16T07:19:00.599Z,98447.23
2022-12-16T07:21:45.677Z,98455.98
2022-12-16T07:24:30.636Z,98463.73
2022-12-16T07:27:15.578Z,98474.23
2022-12-16T07:30:00.708Z,98473.60
2022-12-16T07:32:45.770Z,98471.38
2022-12-16T07:35:30.926Z,98474.83
2022-12-16T07:38:15.799Z,98480.14
2022-12-16T07:41:00.736Z,98476.71
2022-12-16T07:43:46.324Z,98474.28
2022-12-16T07:46:31.881Z,98466.30
2022-12-16T07:49:17.344Z,98461.42
2022-12-16T07:52:06.666Z,98469.48
2022-12-16T07:54:51.786Z,98480.45
2022-12-16T07:57:38.154Z,98482.30
2022-12-16T08:00:24.136Z,98481.25
2022-12-16T08:03:12.838Z,98481.23
2022-12-16T08:05:58.456Z,98489.85
2022-12-16T08:08:43.989Z,98489.88
2022-12-16T08:11:28.852Z,98489.20
2022-12-16T08:14:14.389Z,98496.02
2022-12-16T08:16:59.787Z,98505.21
2022-12-16T08:19:45.135Z,98506.77
2022-12-16T08:22:43.843Z,98513.66
2022-12-16T08:25:28.825Z,98512.27
2022-12-16T08:28:14.603Z,98514.80
2022-12-16T08:31:00.488Z,98514.55
2022-12-16T08:33:45.545Z,98516.89
2022-12-16T08:36:30.374Z,98519.58
2022-12-16T08:39:15.542Z,98529.55
2022-12-16T08:42:00.810Z,98535.73
2022-12-16T08:44:45.942Z,98541.06
2022-12-16T08:47:31.054Z,98542.44
2022-12-16T08:50:16.160Z,98546.98
2022-12-16T08:53:01.284Z,98553.14
2022-12-16T08:55:46.252Z,98557.53
2022-12-16T08:58:31.709Z,98554.20
2022-12-16T09:01:17.261Z,98556.41
2022-12-16T09:04:02.764Z,98554.23
2022-12-16T09:06:48.412Z,98556.80
2022-12-16T09:09:33.789Z,98555.20
2022-12-16T09:12:18.842Z,98554.08
2022-12-16T09:15:11.297Z,98561.45
2022-12-16T09:17:56.753Z,98565.65
2022-12-16T09:20:42.280Z,98565.70
2022-12-16T09:23:28.016Z,98564.53
2022-12-16T09:26:13.087Z,98563.33
2022-12-16T09:28:58.519Z,98562.61
2022-12-16T09:31:44.026Z,98566.52
2022-12-16T09:34:29.088Z,98570.72
2022-12-16T09:37:14.546Z,98576.63
2022-12-16T09:39:59.685Z,98572.23
2022-12-16T09:43:00.245Z,98564.70
2022-12-16T09:45:51.525Z,98569.70
2022-12-16T09:49:06.865Z,98574.64
2022-12-16T09:51:55.275Z,98575.48
2022-12-16T09:54:45.028Z,98572.02
2022-12-16T09:57:32.444Z,98567.59
2022-12-16T10:00:22.339Z,98569.43
2022-12-16T10:03:09.172Z,98570.45
2022-12-16T10:06:10.674Z,98561.60
2022-12-16T10:09:23.393Z,98563.34
2022-12-16T10:13:08.189Z,98572.50
2022-12-16T10:16:05.388Z,98565.84
2022-12-16T10:19:13.627Z,98564.80
2022-12-16T10:22:13.772Z,98560.00
2022-12-16T10:25:23.240Z,98560.28
2022-12-16T10:28:15.845Z,98571.34
2022-12-16T10:31:01.500Z,98572.73
2022-12-16T10:33:47.987Z,98576.95
2022-12-16T10:36:39.853Z,98579.55
2022-12-16T10:39:47.197Z,98582.81
2022-12-16T10:42:54.972Z,98579.77
2022-12-16T10:45:48.654Z,98581.41
2022-12-16T10:48:45.686Z,98590.55
2022-12-16T10:51:39.449Z,98592.28
2022-12-16T10:54:39.800Z,98587.04
2022-12-16T10:57:53.068Z,98587.34
2022-12-16T11:00:56.111Z,98589.78
2022-12-16T11:03:59.771Z,98586.34
2022-12-16T11:06:54.337Z,98577.96
2022-12-16T11:09:47.568Z,98577.95
2022-12-16T11:12:32.606Z,98568.86
2022-12-16T11:15:29.007Z,98563.23
2022-12-16T11:18:24.821Z,98568.22
2022-12-16T11:21:31.173Z,98558.80
2022-12-16T11:24:25.686Z,98564.30
2022-12-16T11:27:15.669Z,98560.98
2022-12-16T11:30:15.240Z,98557.03
2022-12-16T11:33:06.148Z,98558.14
2022-12-16T11:35:55.004Z,98563.03
2022-12-16T11:38:41.484Z,98566.05
2022-12-16T11:41:37.608Z,98571.18
2022-12-16T11:44:23.790Z,98587.38
2022-12-16T11:47:09.185Z,98583.63
2022-12-16T11:49:54.293Z,98587.26
2022-12-16T11:52:41.270Z,98585.88
2022-12-16T11:56:04.954Z,98582.98
2022-12-16T11:58:55.424Z,98594.48
2022-12-16T12:01:50.911Z,98594.39
2022-12-16T12:04:36.771Z,98596.14
2022-12-16T12:07:27.704Z,98587.30
2022-12-16T12:10:24.975Z,98587.40
2022-12-16T12:13:23.473Z,98592.44
2022-12-16T12:16:25.642Z,98601.77
2022-12-16T12:19:43.884Z,98602.32
2022-12-16T12:22:55.848Z,98597.52
2022-12-16T12:26:02.550Z,98596.95
2022-12-16T12:29:08.279Z,98589.10
2022-12-16T12:32:00.754Z,98590.52
2022-12-16T12:34:51.756Z,98602.77
2022-12-16T12:37:40.941Z,98608.91
2022-12-16T12:40:44.078Z,98610.64
2022-12-16T12:43:44.974Z,98615.25
2022-12-16T12:46:39.301Z,98613.72
2022-12-16T12:49:27.251Z,98612.42
2022-12-16T12:52:39.096Z,98611.93
2022-12-16T12:55:43.729Z,98612.88
2022-12-16T12:58:32.696Z,98619.34
2022-12-16T13:01:20.210Z,98641.10
2022-12-16T13:04:24.754Z,98651.63
2022-12-16T13:07:10.307Z,98644.95
2022-12-16T13:09:57.316Z,98642.73
2022-12-16T13:12:48.920Z,98646.73
2022-12-16T13:15:58.794Z,98652.13
2022-12-16T13:18:48.397Z,98662.27
2022-12-16T13:23:47.003Z,98678.14
2022-12-16T13:26:36.406Z,98685.27
2022-12-16T13:29:48.940Z,98689.42
2022-12-16T13:32:40.527Z,98686.34
2022-12-16T13:35:26.976Z,98680.32
2022-12-16T13:38:19.566Z,98679.13
2022-12-16T13:41:14.624Z,98682.57
2022-12-16T13:44:11.335Z,98689.97
2022-12-16T13:47:06.899Z,98696.54
2022-12-16T13:50:03.147Z,98703.84
2022-12-16T13:52:58.885Z,98714.17
2022-12-16T13:56:04.804Z,98719.13
2022-12-16T13:59:10.365Z,98718.23
2022-12-16T14:02:10.699Z,98711.36
2022-12-16T14:05:06.803Z,98713.29
2022-12-16T14:08:13.775Z,98708.86
2022-12-16T14:11:01.664Z,98707.48
2022-12-16T14:14:05.001Z,98714.52
2022-12-16T14:16:57.721Z,98721.45
2022-12-16T14:19:58.260Z,98727.65
2022-12-16T14:23:17.971Z,98730.41
2022-12-16T14:26:17.511Z,98729.56
2022-12-16T14:29:06.663Z,98733.70
2022-12-16T14:31:58.554Z,98745.39
2022-12-16T14:34:51.249Z,98755.19
2022-12-16T14:37:56.410Z,98766.38
2022-12-16T14:40:51.083Z,98770.14
2022-12-16T14:43:43.732Z,98771.11
2022-12-16T14:46:50.890Z,98775.69
2022-12-16T14:49:43.762Z,98777.36
2022-12-16T14:52:42.746Z,98779.97
2022-12-16T14:55:45.417Z,98786.88
2022-12-16T14:58:33.757Z,98782.58
2022-12-16T15:01:39.595Z,98781.52
2022-12-16T15:04:36.998Z,98782.08
2022-12-16T15:07:31.690Z,98784.17
2022-12-16T15:10:19.426Z,98784.87
2022-12-16T15:13:08.206Z,98786.94
2022-12-16T15:16:07.363Z,98795.36
2022-12-16T15:19:05.193Z,98806.92
2022-12-16T15:21:53.483Z,98804.86
2022-12-16T15:24:43.585Z,98811.91
2022-12-16T15:27:42.346Z,98813.79
2022-12-16T15:30:51.240Z,98814.14
2022-12-16T15:33:40.950Z,98824.63
2022-12-16T15:36:46.763Z,98825.65
2022-12-16T15:39:48.465Z,98834.23
2022-12-16T15:42:51.644Z,98838.04
2022-12-16T15:45:49.893Z,98840.95
2022-12-16T15:48:38.353Z,98843.84
2022-12-16T15:51:45.423Z,98852.10
2022-12-16T15:54:37.632Z,98861.35
2022-12-16T15:57:46.761Z,98865.28
2022-12-16T16:00:40.356Z,98876.80
2022-12-16T16:03:42.113Z,98880.45
2022-12-16T16:06:47.306Z,98890.13
2022-12-16T16:09:46.565Z,98899.29
2022-12-16T16:12:35.650Z,98907.59
2022-12-16T16:15:24.099Z,98913.44
2022-12-16T16:18:19.978Z,98916.52
2022-12-16T16:21:07.180Z,98928.23
2022-12-16T16:23:54.062Z,98927.21
2022-12-16T16:26:45.628Z,98928.57
2022-12-16T16:29:32.593Z,98925.62
2022-12-16T16:32:20.511Z,98931.31
2022-12-16T16:35:07.142Z,98930.98
2022-12-16T16:37:53.359Z,98934.24
2022-12-16T16:40:54.182Z,98935.60
2022-12-16T16:43:41.863Z,98932.29
2022-12-16T16:46:50.810Z,98934.33
2022-12-16T16:49:41.712Z,98931.06
2022-12-16T16:52:34.568Z,98933.67
2022-12-16T16:55:22.130Z,98930.59
2022-12-16T16:58:09.286Z,98930.75
2022-12-16T17:00:55.773Z,98932.66
2022-12-16T17:03:42.882Z,98931.97
2022-12-16T17:06:30.014Z,98934.36
2022-12-16T17:09:16.855Z,98938.16
2022-12-16T17:12:03.303Z,98942.14
2022-12-16T17:14:49.784Z,98945.08
2022-12-16T17:17:36.449Z,98959.91
2022-12-16T17:20:23.693Z,98971.95
2022-12-16T17:23:10.160Z,98973.98
2022-12-16T17:25:56.525Z,98969.13
2022-12-16T17:28:43.213Z,98960.53
2022-12-16T17:31:30.110Z,98963.98
2022-12-16T17:34:17.378Z,98966.05
2022-12-16T17:37:04.053Z,98963.48
2022-12-16T17:39:51.017Z,98964.00
2022-12-16T17:42:39.503Z,98963.84
2022-12-16T17:45:29.682Z,98964.02
2022-12-16T17:48:16.304Z,98965.75
2022-12-16T17:51:02.746Z,98969.00
2022-12-16T17:53:52.512Z,98973.10
2022-12-16T17:56:42.105Z,98976.38
2022-12-16T17:59:29.214Z,98978.59
2022-12-16T18:02:16.025Z,98976.71
2022-12-16T18:05:02.934Z,98980.67
2022-12-16T18:07:52.301Z,98982.08
2022-12-16T18:10:39.025Z,98987.44
2022-12-16T18:13:25.756Z,98989.36
2022-12-16T18:16:12.998Z,98990.40
2022-12-16T18:19:10.289Z,98994.48
2022-12-16T18:21:58.201Z,98997.90
2022-12-16T18:24:48.383Z,98998.73
2022-12-16T18:27:35.855Z,99001.51
2022-12-16T18:30:23.154Z,98999.45
2022-12-16T18:33:09.902Z,99000.84
2022-12-16T18:35:56.358Z,99002.02
2022-12-16T18:38:42.981Z,99005.30
2022-12-16T18:41:35.760Z,99013.91
2022-12-16T18:44:24.325Z,99013.06
2022-12-16T18:47:11.368Z,99012.90
2022-12-16T18:49:57.746Z,99009.45
2022-12-16T18:52:44.630Z,99009.64
2022-12-16T18:55:31.790Z,99016.02
2022-12-16T18:58:49.232Z,99017.23
2022-12-16T19:01:28.660Z,99023.45
2022-12-16T19:04:15.969Z,99025.53
2022-12-16T19:07:02.597Z,99024.52
2022-12-16T19:09:49.307Z,99034.70
2022-12-16T19:12:35.754Z,99039.34
2022-12-16T19:15:22.228Z,99045.02
2022-12-16T19:18:08.650Z,99045.35
2022-12-16T19:20:56.765Z,99050.52
2022-12-16T19:23:43.390Z,99056.19
2022-12-16T19:26:29.914Z,99062.23
2022-12-16T19:29:16.553Z,99063.45
2022-12-16T19:32:03.182Z,99062.23
2022-12-16T19:34:51.474Z,99062.58
2022-12-16T19:37:38.713Z,99058.45
2022-12-16T19:40:40.513Z,99062.05
2022-12-16T19:43:26.873Z,99060.86
2022-12-16T19:46:14.550Z,99063.61
2022-12-16T19:49:01.224Z,99071.54
2022-12-16T19:51:48.408Z,99074.98
2022-12-16T19:54:35.055Z,99083.58
2022-12-16T19:57:22.386Z,99088.05
2022-12-16T20:00:09.032Z,99085.31
2022-12-16T20:03:01.025Z,99083.94
2022-12-16T20:05:48.878Z,99088.08
2022-12-16T20:08:35.343Z,99094.09
2022-12-16T20:11:36.236Z,99091.00
2022-12-16T20:14:23.260Z,99095.47
2022-12-16T20:17:10.292Z,99097.38
2022-12-16T20:19:56.740Z,99103.23
2022-12-16T20:22:53.797Z,99110.96
2022-12-16T20:25:43.238Z,99121.11
2022-12-16T20:28:31.784Z,99125.73
2022-12-16T20:31:24.338Z,99126.95
2022-12-16T20:34:14.460Z,99135.20
2022-12-16T20:37:01.683Z,99141.74
2022-12-16T20:39:56.375Z,99146.39
2022-12-16T20:42:45.028Z,99142.93
2022-12-16T20:45:31.913Z,99144.32
2022-12-16T20:48:19.314Z,99149.31
2022-12-16T20:51:22.624Z,99155.51
2022-12-16T20:54:13.875Z,99151.89
2022-12-16T20:57:00.471Z,99159.62
2022-12-16T20:59:47.160Z,99162.88
2022-12-16T21:02:34.475Z,99168.55
2022-12-16T21:05:22.246Z,99170.80
2022-12-16T21:08:08.604Z,99163.91
2022-12-16T21:10:56.438Z,99164.61
2022-12-16T21:13:43.714Z,99168.91
2022-12-16T21:16:30.585Z,99172.52
2022-12-16T21:19:17.446Z,99177.85
2022-12-16T21:22:04.145Z,99183.17
2022-12-16T21:24:50.447Z,99190.05
2022-12-16T21:27:37.124Z,99199.87
2022-12-16T21:30:24.332Z,99201.40
2022-12-16T21:33:12.133Z,99203.81
2022-12-16T21:35:58.566Z,99206.23
2022-12-16T21:38:45.339Z,99210.35
2022-12-16T21:41:31.629Z,99212.23
2022-12-16T21:44:18.081Z,99217.05
2022-12-16T21:47:04.503Z,99219.34
2022-12-16T21:49:51.717Z,99214.05
2022-12-16T21:52:38.506Z,99220.09
2022-12-16T21:55:25.691Z,99218.86
2022-12-16T21:58:14.321Z,99220.59
2022-12-16T22:01:00.976Z,99215.73
2022-12-16T22:03:54.569Z,99210.09
2022-12-16T22:06:48.467Z,99213.08
2022-12-16T22:09:35.970Z,99219.91
2022-12-16T22:12:22.691Z,99219.65
2022-12-16T22:15:09.311Z,99231.23
2022-12-16T22:17:58.635Z,99236.77
2022-12-16T22:20:45.494Z,99236.79
2022-12-16T22:23:31.972Z,99241.95
2022-12-16T22:26:19.650Z,99246.60
2022-12-16T22:29:06.487Z,99250.73
2022-12-16T22:31:52.646Z,99252.29
2022-12-16T22:34:39.397Z,99250.38
2022-12-16T22:37:25.887Z,99256.91
2022-12-16T22:40:12.252Z,99259.13
2022-12-16T22:42:58.679Z,99256.54
2022-12-16T22:45:44.901Z,99259.29
2022-12-16T22:48:31.777Z,99266.67
2022-12-16T22:51:18.012Z,99275.45
2022-12-16T22:54:08.374Z,99280.09
2022-12-16T22:56:57.276Z,99282.64
2022-12-16T22:59:44.046Z,99284.17
2022-12-16T23:02:30.537Z,99280.02
2022-12-16T23:05:18.389Z,99272.48
2022-12-16T23:08:06.960Z,99276.45
2022-12-16T23:10:53.413Z,99277.30
2022-12-16T23:13:44.484Z,99280.37
2022-12-16T23:16:31.897Z,99278.64
2022-12-16T23:19:18.859Z,99276.23
2022-12-16T23:22:07.509Z,99275.71
2022-12-16T23:24:54.106Z,99277.48
2022-12-16T23:27:40.644Z,99284.39
2022-12-16T23:30:27.881Z,99281.97
2022-12-16T23:33:19.252Z,99289.05
2022-12-16T23:36:06.080Z,99293.02
2022-12-16T23:38:53.411Z,99295.60
2022-12-16T23:41:39.627Z,99297.85
2022-12-16T23:44:25.838Z,99299.06
2022-12-16T23:47:12.827Z,99299.92
2022-12-16T23:49:59.162Z,99306.84
2022-12-16T23:52:45.940Z,99314.42
2022-12-16T23:55:32.788Z,99312.88
2022-12-16T23:58:21.218Z,99315.98
